Time;durP1;ratioP1;P1;durP2;ratioP2;P2;SDS_P1;SDS_P2;PMS_P1;PMS_P2;Temp;Humidity;BMP_temperature;BMP_pressure;BME280_temperature;BME280_humidity;BME280_pressure;Samples;Min_cycle;Max_cycle;Signal;HPM_P1;HPM_P2
2022/08/03 00:00:05;;;;;;;0.40;0.40;;;21.00;99.40;;;;;;4400899;32;20442;-74
2022/08/03 00:02:31;;;;;;;8.10;0.77;;;21.00;99.90;;;;;;4400306;32;20101;-73
2022/08/03 00:04:56;;;;;;;3.03;0.60;;;20.90;99.90;;;;;;4402141;32;20066;-73
2022/08/03 00:07:22;;;;;;;0.60;0.60;;;20.90;99.90;;;;;;4402090;32;20070;-73
2022/08/03 00:09:47;;;;;;;0.32;0.32;;;20.90;99.90;;;;;;4401059;32;20173;-73
2022/08/03 00:12:13;;;;;;;0.40;0.40;;;20.70;99.90;;;;;;4400414;32;20534;-73
2022/08/03 00:14:38;;;;;;;0.35;0.35;;;20.70;99.90;;;;;;4401803;32;20071;-74
2022/08/03 00:17:04;;;;;;;0.40;0.40;;;20.60;99.90;;;;;;4401026;32;20065;-73
2022/08/03 00:19:29;;;;;;;0.30;0.30;;;20.70;99.90;;;;;;4388453;32;20463;-73
2022/08/03 00:21:55;;;;;;;0.30;0.30;;;20.80;99.60;;;;;;4385709;32;20091;-73
2022/08/03 00:24:20;;;;;;;0.30;0.30;;;20.80;99.50;;;;;;4385875;32;20082;-73
2022/08/03 00:26:46;;;;;;;0.35;0.35;;;20.90;99.90;;;;;;4385682;32;20522;-75
2022/08/03 00:29:11;;;;;;;0.47;0.47;;;20.90;98.90;;;;;;4393140;32;20085;-73
2022/08/03 00:31:37;;;;;;;1.75;0.60;;;21.00;99.90;;;;;;4401738;32;20066;-73
2022/08/03 00:34:02;;;;;;;0.60;0.60;;;20.80;99.90;;;;;;4400445;32;20077;-73
2022/08/03 00:36:28;;;;;;;0.60;0.60;;;20.70;99.90;;;;;;4400495;32;20077;-73
2022/08/03 00:38:54;;;;;;;2.10;1.33;;;20.60;99.90;;;;;;4400744;32;20077;-73
2022/08/03 00:41:19;;;;;;;0.40;0.40;;;20.50;99.90;;;;;;4400147;32;20082;-73
2022/08/03 00:43:46;;;;;;;0.30;0.30;;;20.40;99.90;;;;;;4399763;32;20715;-73
2022/08/03 00:46:12;;;;;;;0.50;0.50;;;20.50;99.90;;;;;;4401104;32;20439;-73
2022/08/03 00:48:37;;;;;;;0.65;0.65;;;20.40;99.90;;;;;;4400077;32;20066;-74
2022/08/03 00:51:03;;;;;;;0.30;0.30;;;20.20;99.90;;;;;;4399851;32;20062;-74
2022/08/03 00:53:29;;;;;;;0.30;0.30;;;20.20;99.90;;;;;;4399873;32;20077;-75
2022/08/03 00:55:55;;;;;;;0.88;0.60;;;20.20;99.90;;;;;;4399991;32;20074;-74
2022/08/03 00:58:21;;;;;;;2.50;1.27;;;20.30;99.90;;;;;;4399870;32;20094;-74
2022/08/03 01:00:46;;;;;;;0.30;0.30;;;20.40;99.90;;;;;;4399397;32;20125;-74
2022/08/03 01:03:12;;;;;;;0.32;0.32;;;20.50;99.90;;;;;;4399725;32;20061;-74
2022/08/03 01:05:52;;;;;;;0.93;0.70;;;20.40;99.90;;;;;;4399728;32;20161;-74
2022/08/03 01:08:30;;;;;;;0.55;0.55;;;20.40;99.90;;;;;;4398707;32;20089;-74
2022/08/03 01:11:17;;;;;;;0.77;0.50;;;20.50;99.90;;;;;;4399712;32;20129;-74
2022/08/03 01:13:52;;;;;;;2.92;0.57;;;20.60;99.90;;;;;;4399332;32;20078;-74
2022/08/03 01:16:23;;;;;;;0.43;0.43;;;20.60;99.90;;;;;;4400066;32;20085;-74
2022/08/03 01:19:01;;;;;;;6.85;2.33;;;20.50;99.90;;;;;;4399345;32;20078;-74
2022/08/03 01:21:36;;;;;;;1.80;0.90;;;20.50;99.90;;;;;;4399941;32;20054;-74
2022/08/03 01:24:12;;;;;;;0.30;0.30;;;20.50;99.50;;;;;;4400279;32;20082;-74
2022/08/03 01:27:16;;;;;;;0.50;0.50;;;20.50;99.60;;;;;;4400004;32;20065;-74
2022/08/03 01:30:06;;;;;;;0.30;0.30;;;20.70;98.90;;;;;;4399162;32;20126;-74
2022/08/03 01:32:59;;;;;;;0.55;0.45;;;20.70;99.30;;;;;;4398609;32;20070;-74
2022/08/03 01:35:32;;;;;;;7.03;0.60;;;20.70;98.40;;;;;;4398972;32;20070;-74
2022/08/03 01:38:03;;;;;;;0.40;0.40;;;20.60;99.30;;;;;;4399012;32;20166;-74
2022/08/03 01:40:30;;;;;;;;;;;20.50;99.50;;;;;;4400149;32;20074;-74
2022/08/03 01:43:00;;;;;;;0.70;0.60;;;20.50;99.20;;;;;;4399140;32;19949;-74
2022/08/03 01:45:27;;;;;;;0.30;0.30;;;20.40;99.50;;;;;;4398934;32;20491;-74
2022/08/03 01:47:53;;;;;;;1.25;0.68;;;20.20;99.40;;;;;;4399432;32;20086;-74
2022/08/03 01:50:23;;;;;;;0.30;0.30;;;20.30;99.30;;;;;;4399196;32;20078;-74
2022/08/03 01:52:49;;;;;;;0.65;0.30;;;20.30;99.20;;;;;;4399580;32;20074;-74
2022/08/03 01:55:17;;;;;;;0.50;0.50;;;20.40;99.00;;;;;;4399694;32;20498;-74
2022/08/03 01:57:44;;;;;;;0.30;0.30;;;20.50;98.80;;;;;;4399062;32;20420;-74
2022/08/03 02:00:11;;;;;;;0.50;0.35;;;20.50;98.50;;;;;;4398805;32;20067;-74
2022/08/03 02:02:38;;;;;;;0.37;0.37;;;20.60;98.20;;;;;;4399009;32;20120;-74
2022/08/03 02:05:07;;;;;;;0.40;0.40;;;20.50;98.60;;;;;;4399644;32;20494;-73
2022/08/03 02:07:35;;;;;;;0.30;0.30;;;20.40;98.70;;;;;;4399069;32;20074;-74
2022/08/03 02:10:02;;;;;;;0.37;0.37;;;20.50;98.60;;;;;;4398986;32;20066;-73
2022/08/03 02:12:30;;;;;;;1.65;0.50;;;20.50;98.50;;;;;;4399177;32;20147;-73
2022/08/03 02:14:56;;;;;;;0.20;0.20;;;20.60;98.20;;;;;;4400207;32;20075;-74
2022/08/03 02:17:24;;;;;;;0.52;0.50;;;20.60;98.30;;;;;;4398857;32;20074;-73
2022/08/03 02:19:50;;;;;;;0.37;0.37;;;20.70;98.20;;;;;;4384878;32;20511;-73
2022/08/03 02:22:16;;;;;;;0.98;0.73;;;20.60;98.40;;;;;;4385277;32;20185;-73
2022/08/03 02:24:42;;;;;;;0.35;0.35;;;20.70;98.60;;;;;;4383796;32;20070;-73
2022/08/03 02:27:21;;;;;;;0.30;0.30;;;20.80;98.40;;;;;;4390234;32;20066;-73
2022/08/03 02:29:51;;;;;;;0.22;0.22;;;20.80;98.30;;;;;;4397594;32;20070;-72
2022/08/03 02:32:23;;;;;;;0.50;0.50;;;20.80;98.80;;;;;;4398696;32;20517;-75
2022/08/03 02:34:52;;;;;;;0.82;0.50;;;20.60;98.90;;;;;;4400520;32;20081;-75
2022/08/03 02:37:18;;;;;;;0.40;0.40;;;20.60;99.40;;;;;;4400107;32;20077;-74
2022/08/03 02:39:45;;;;;;;0.60;0.60;;;20.60;99.10;;;;;;4399304;32;20070;-74
2022/08/03 02:42:14;;;;;;;0.65;0.65;;;20.60;98.90;;;;;;4398943;32;20125;-74
2022/08/03 02:44:46;;;;;;;0.30;0.30;;;20.70;99.10;;;;;;4399198;32;20132;-74
2022/08/03 02:47:12;;;;;;;12.30;0.82;;;20.70;98.90;;;;;;4392137;32;20074;-73
2022/08/03 02:49:40;;;;;;;0.37;0.37;;;20.80;98.90;;;;;;4400537;32;20097;-74
2022/08/03 02:52:10;;;;;;;4.07;0.95;;;20.70;99.10;;;;;;4401353;32;20078;-74
2022/08/03 02:54:38;;;;;;;4.22;1.23;;;20.60;99.20;;;;;;4401501;32;20073;-74
2022/08/03 02:57:07;;;;;;;0.35;0.35;;;20.40;99.80;;;;;;4401141;32;20083;-74
2022/08/03 02:59:33;;;;;;;7.12;1.33;;;20.30;99.90;;;;;;4401401;32;20163;-74
2022/08/03 03:02:01;;;;;;;0.22;0.22;;;20.30;99.90;;;;;;4401413;32;20070;-74
2022/08/03 03:04:29;;;;;;;0.20;0.20;;;20.30;99.90;;;;;;4401493;32;20069;-74
2022/08/03 03:06:55;;;;;;;0.68;0.68;;;20.40;99.90;;;;;;4401148;32;20102;-74
2022/08/03 03:09:22;;;;;;;0.50;0.50;;;20.30;99.90;;;;;;4401528;32;20073;-74
2022/08/03 03:11:49;;;;;;;0.37;0.37;;;20.30;99.90;;;;;;4401688;32;20419;-74
2022/08/03 03:14:16;;;;;;;0.37;0.37;;;20.30;99.70;;;;;;4400793;32;20118;-74
2022/08/03 03:16:43;;;;;;;0.55;0.55;;;20.30;99.60;;;;;;4400311;32;20070;-74
2022/08/03 03:19:10;;;;;;;1.17;0.85;;;20.30;99.60;;;;;;4390871;32;20078;-74
2022/08/03 03:21:36;;;;;;;0.50;0.50;;;20.20;99.40;;;;;;4386452;32;20092;-74
2022/08/03 03:24:03;;;;;;;0.20;0.20;;;20.30;99.60;;;;;;4386191;32;20074;-73
2022/08/03 03:26:29;;;;;;;1.75;1.20;;;20.20;99.40;;;;;;4393744;32;20134;-73
2022/08/03 03:28:55;;;;;;;1.12;0.55;;;20.30;99.20;;;;;;4401365;32;20077;-73
2022/08/03 03:31:21;;;;;;;0.60;0.50;;;20.30;99.10;;;;;;4400698;32;20077;-73
2022/08/03 03:33:47;;;;;;;0.32;0.32;;;20.20;99.20;;;;;;4400976;32;20070;-73
2022/08/03 03:36:12;;;;;;;0.80;0.80;;;20.10;99.10;;;;;;4401673;32;20419;-73
2022/08/03 03:38:38;;;;;;;0.40;0.40;;;20.10;99.30;;;;;;4401927;32;20074;-73
2022/08/03 03:41:04;;;;;;;0.40;0.40;;;20.10;99.50;;;;;;4400844;32;20074;-73
2022/08/03 03:43:30;;;;;;;0.37;0.37;;;20.10;99.80;;;;;;4400952;32;20131;-73
2022/08/03 03:45:57;;;;;;;0.40;0.40;;;20.10;99.90;;;;;;4401924;32;20026;-73
2022/08/03 03:48:24;;;;;;;0.40;0.40;;;20.10;99.90;;;;;;4394807;32;20526;-73
2022/08/03 03:50:49;;;;;;;7.78;0.60;;;20.10;99.90;;;;;;4385852;32;20070;-73
2022/08/03 03:53:15;;;;;;;3.12;1.23;;;20.10;99.90;;;;;;4385155;32;20531;-73
2022/08/03 03:55:40;;;;;;;0.35;0.35;;;20.10;99.90;;;;;;4390621;32;20124;-73
2022/08/03 03:58:06;;;;;;;4.75;0.80;;;20.20;99.90;;;;;;4400784;32;20085;-73
2022/08/03 04:00:33;;;;;;;0.68;0.68;;;20.20;99.90;;;;;;4400386;32;20066;-73
2022/08/03 04:02:58;;;;;;;2.05;0.85;;;20.10;99.90;;;;;;4400310;32;20078;-73
2022/08/03 04:11:13;;;;;;;4.50;2.15;;;20.10;99.90;;;;;;4410158;32;20066;-74
2022/08/03 04:13:49;;;;;;;1.05;0.60;;;20.10;99.90;;;;;;4400222;32;20087;-73
2022/08/03 04:16:17;;;;;;;1.62;0.47;;;20.20;99.90;;;;;;4400809;32;20506;-74
2022/08/03 04:18:49;;;;;;;0.30;0.30;;;20.30;99.90;;;;;;4393685;32;20074;-73
2022/08/03 04:21:17;;;;;;;0.60;0.40;;;20.30;99.90;;;;;;4385100;32;20121;-74
2022/08/03 04:23:47;;;;;;;1.50;0.77;;;20.40;99.90;;;;;;4384999;32;20074;-73
2022/08/03 04:26:15;;;;;;;2.47;0.98;;;20.50;99.90;;;;;;4392706;32;20078;-72
2022/08/03 04:28:44;;;;;;;0.50;0.50;;;20.40;99.90;;;;;;4400914;32;20085;-73
2022/08/03 04:31:11;;;;;;;0.73;0.73;;;20.40;99.90;;;;;;4399999;32;20066;-73
2022/08/03 04:33:38;;;;;;;5.37;1.12;;;20.40;99.90;;;;;;4400153;32;20110;-73
2022/08/03 04:36:06;;;;;;;0.50;0.50;;;20.50;99.90;;;;;;4400656;32;20507;-73
2022/08/03 04:38:37;;;;;;;14.73;1.45;;;20.40;99.90;;;;;;4399979;32;20513;-73
2022/08/03 04:41:04;;;;;;;1.62;0.50;;;20.40;99.90;;;;;;4400042;32;20066;-73
2022/08/03 04:43:32;;;;;;;3.05;0.55;;;20.40;99.90;;;;;;4399933;32;20090;-73
2022/08/03 04:45:58;;;;;;;0.75;0.75;;;20.40;99.90;;;;;;4399965;32;20241;-73
2022/08/03 04:48:24;;;;;;;0.40;0.40;;;20.40;99.90;;;;;;4400459;32;20066;-74
2022/08/03 04:50:50;;;;;;;0.35;0.35;;;20.40;99.90;;;;;;4396629;32;99389;-74
2022/08/03 04:53:17;;;;;;;0.60;0.60;;;20.40;99.90;;;;;;4399989;32;20415;-74
2022/08/03 04:55:42;;;;;;;1.30;0.88;;;20.50;99.80;;;;;;4400097;32;20062;-74
2022/08/03 04:58:08;;;;;;;0.70;0.70;;;20.60;99.90;;;;;;4400264;32;20131;-74
2022/08/03 05:00:33;;;;;;;26.02;2.67;;;20.60;99.10;;;;;;4397779;32;20466;-73
2022/08/03 05:02:59;;;;;;;0.65;0.62;;;20.70;99.90;;;;;;4400140;32;20094;-74
2022/08/03 05:05:24;;;;;;;0.50;0.50;;;20.80;99.50;;;;;;4399813;32;20534;-73
2022/08/03 05:07:52;;;;;;;0.40;0.40;;;20.80;99.60;;;;;;4399441;32;20066;-73
2022/08/03 05:10:18;;;;;;;0.40;0.40;;;20.90;99.90;;;;;;4401501;32;20086;-73
2022/08/03 05:12:45;;;;;;;0.40;0.40;;;20.90;99.40;;;;;;4399280;32;20070;-73
2022/08/03 05:15:11;;;;;;;0.43;0.43;;;21.00;98.10;;;;;;4400403;32;20074;-73
2022/08/03 05:17:36;;;;;;;2.05;0.95;;;21.10;99.20;;;;;;4399475;32;20089;-73
2022/08/03 05:20:03;;;;;;;3.78;0.85;;;21.10;99.40;;;;;;4384517;32;20085;-73
2022/08/03 05:22:28;;;;;;;0.50;0.50;;;21.10;99.40;;;;;;4384589;32;20075;-73
2022/08/03 05:24:54;;;;;;;0.52;0.52;;;21.20;99.00;;;;;;4386510;32;21005;-73
2022/08/03 05:27:19;;;;;;;0.30;0.30;;;21.20;99.00;;;;;;4400221;32;20112;-73
2022/08/03 05:29:46;;;;;;;0.40;0.40;;;21.30;97.00;;;;;;4399978;32;20070;-73
2022/08/03 05:32:12;;;;;;;0.85;0.80;;;21.40;96.40;;;;;;4399967;32;20067;-73
2022/08/03 05:34:38;;;;;;;0.40;0.40;;;21.50;95.70;;;;;;4400247;32;20063;-73
2022/08/03 05:37:03;;;;;;;0.57;0.50;;;21.60;95.70;;;;;;4400503;32;20065;-73
2022/08/03 05:39:28;;;;;;;1.98;1.00;;;21.70;95.70;;;;;;4399924;32;20077;-72
2022/08/03 05:41:54;;;;;;;3.67;1.33;;;21.80;95.60;;;;;;4399926;32;20082;-74
2022/08/03 05:44:19;;;;;;;0.30;0.30;;;21.90;95.30;;;;;;4399823;32;20065;-72
2022/08/03 05:46:45;;;;;;;0.98;0.57;;;22.00;94.90;;;;;;4399470;32;20073;-74
2022/08/03 05:49:10;;;;;;;0.50;0.50;;;22.10;94.80;;;;;;4399530;32;20530;-74
2022/08/03 05:51:36;;;;;;;0.30;0.30;;;22.10;94.80;;;;;;4399078;32;20066;-74
2022/08/03 05:54:01;;;;;;;0.40;0.40;;;22.20;94.40;;;;;;4399764;32;20123;-74
2022/08/03 05:56:27;;;;;;;1.75;0.70;;;22.20;94.40;;;;;;4399485;32;20077;-72
2022/08/03 05:58:53;;;;;;;0.50;0.50;;;22.30;94.30;;;;;;4399320;32;20141;-73
2022/08/03 06:01:20;;;;;;;0.30;0.30;;;22.40;94.20;;;;;;4399397;32;20121;-73
2022/08/03 06:03:46;;;;;;;0.30;0.30;;;22.40;94.10;;;;;;4399092;32;20132;-73
2022/08/03 06:06:12;;;;;;;0.43;0.43;;;22.50;93.80;;;;;;4399770;32;20078;-73
2022/08/03 06:08:38;;;;;;;0.30;0.30;;;22.60;93.60;;;;;;4399466;32;20513;-73
2022/08/03 06:11:04;;;;;;;0.65;0.65;;;22.70;93.60;;;;;;4399016;32;20082;-73
2022/08/03 06:13:29;;;;;;;0.40;0.40;;;22.70;93.60;;;;;;4399309;32;20486;-73
2022/08/03 06:15:55;;;;;;;0.40;0.40;;;22.70;93.80;;;;;;4399784;32;20128;-73
2022/08/03 06:18:20;;;;;;;0.50;0.50;;;22.80;93.50;;;;;;4399345;32;20380;-73
2022/08/03 06:20:46;;;;;;;0.28;0.28;;;22.90;93.40;;;;;;4389779;32;20070;-72
2022/08/03 06:23:11;;;;;;;0.25;0.20;;;23.00;93.10;;;;;;4384947;32;20452;-73
2022/08/03 06:25:37;;;;;;;0.50;0.50;;;23.10;93.00;;;;;;4393279;32;20131;-73
2022/08/03 06:28:03;;;;;;;0.52;0.52;;;23.10;92.70;;;;;;4402209;32;20070;-72
2022/08/03 06:30:29;;;;;;;0.60;0.43;;;23.20;92.90;;;;;;4401799;32;20533;-73
2022/08/03 06:32:54;;;;;;;0.30;0.30;;;23.30;92.80;;;;;;4402425;32;20075;-73
2022/08/03 06:35:20;;;;;;;0.20;0.20;;;23.40;92.90;;;;;;4401905;32;20592;-72
2022/08/03 06:37:48;;;;;;;0.37;0.37;;;23.40;92.80;;;;;;4402176;32;20066;-74
2022/08/03 06:40:18;;;;;;;0.65;0.43;;;23.50;92.40;;;;;;4401130;32;20063;-74
2022/08/03 06:42:44;;;;;;;2.08;0.40;;;23.60;92.50;;;;;;4401672;32;20117;-73
2022/08/03 06:45:10;;;;;;;0.30;0.30;;;23.60;92.40;;;;;;4401514;32;20074;-74
2022/08/03 06:47:38;;;;;;;0.20;0.20;;;23.70;92.20;;;;;;4401214;32;20066;-74
2022/08/03 06:50:05;;;;;;;0.47;0.47;;;23.80;91.70;;;;;;4395795;32;20129;-74
2022/08/03 06:52:31;;;;;;;0.43;0.43;;;23.90;91.90;;;;;;4386233;32;20058;-73
2022/08/03 06:54:56;;;;;;;0.30;0.30;;;24.00;92.00;;;;;;4393486;32;20099;-74
2022/08/03 06:57:22;;;;;;;0.43;0.43;;;24.10;91.50;;;;;;4401608;32;20082;-73
2022/08/03 06:59:48;;;;;;;0.40;0.40;;;24.20;91.00;;;;;;4401270;32;20078;-74
2022/08/03 07:02:13;;;;;;;2.08;1.10;;;24.30;90.90;;;;;;4401357;32;20082;-73
2022/08/03 07:04:39;;;;;;;1.30;0.68;;;24.40;90.20;;;;;;4401526;32;20062;-74
2022/08/03 07:07:04;;;;;;;0.88;0.88;;;24.50;90.10;;;;;;4401600;32;20074;-73
2022/08/03 07:09:30;;;;;;;0.43;0.43;;;24.50;90.20;;;;;;4401698;32;20077;-74
2022/08/03 07:11:55;;;;;;;0.85;0.35;;;24.60;89.50;;;;;;4401659;32;20065;-74
2022/08/03 07:14:21;;;;;;;0.10;0.10;;;24.70;89.80;;;;;;4402462;32;20075;-74
2022/08/03 07:16:47;;;;;;;0.25;0.25;;;24.70;88.70;;;;;;4400182;32;20427;-74
2022/08/03 07:19:12;;;;;;;0.28;0.28;;;24.80;88.90;;;;;;4401010;32;20057;-73
2022/08/03 07:21:38;;;;;;;0.32;0.32;;;24.90;89.40;;;;;;4401118;32;20118;-73
2022/08/03 07:24:04;;;;;;;0.15;0.15;;;25.00;89.10;;;;;;4400561;32;20382;-74
2022/08/03 07:26:29;;;;;;;6.80;1.00;;;25.00;88.70;;;;;;4400087;32;20513;-73
2022/08/03 07:28:55;;;;;;;0.35;0.35;;;25.10;88.10;;;;;;4400346;32;20069;-74
2022/08/03 07:31:20;;;;;;;0.37;0.37;;;25.20;87.50;;;;;;4400592;32;20081;-74
2022/08/03 07:33:46;;;;;;;0.20;0.20;;;25.30;86.80;;;;;;4400897;32;20506;-73
2022/08/03 07:36:11;;;;;;;0.47;0.40;;;25.40;86.40;;;;;;4400505;32;20369;-74
2022/08/03 07:38:37;;;;;;;0.40;0.40;;;25.60;86.00;;;;;;4402150;32;20126;-74
2022/08/03 07:41:02;;;;;;;0.20;0.20;;;25.80;85.90;;;;;;4400818;32;20074;-74
2022/08/03 07:43:28;;;;;;;0.32;0.32;;;25.90;85.90;;;;;;4401117;32;20118;-74
2022/08/03 07:45:54;;;;;;;0.20;0.20;;;26.00;85.20;;;;;;4400803;32;20090;-74
2022/08/03 07:48:19;;;;;;;0.25;0.25;;;26.20;83.60;;;;;;4400668;32;20101;-73
2022/08/03 07:50:45;;;;;;;0.10;0.10;;;26.30;83.60;;;;;;4400305;32;20062;-73
2022/08/03 07:53:10;;;;;;;0.32;0.32;;;26.40;83.30;;;;;;4400716;32;20420;-74
2022/08/03 07:55:36;;;;;;;0.10;0.10;;;26.50;82.80;;;;;;4400082;32;20531;-74
2022/08/03 07:58:05;;;;;;;0.10;0.10;;;26.70;82.10;;;;;;4399810;32;20081;-74
2022/08/03 08:00:31;;;;;;;0.22;0.22;;;26.80;81.70;;;;;;4400624;32;20077;-74
2022/08/03 08:02:56;;;;;;;0.20;0.20;;;26.90;80.50;;;;;;4400873;32;20122;-74
2022/08/03 08:05:22;;;;;;;0.65;0.45;;;27.00;80.30;;;;;;4400566;32;20074;-74
2022/08/03 08:07:47;;;;;;;0.20;0.20;;;27.10;80.50;;;;;;4399872;32;20521;-74
2022/08/03 08:10:14;;;;;;;0.73;0.50;;;27.30;80.00;;;;;;4400543;32;20110;-74
2022/08/03 08:12:40;;;;;;;1.08;0.75;;;27.40;79.20;;;;;;4400304;32;20137;-74
2022/08/03 08:15:06;;;;;;;0.20;0.20;;;27.50;79.30;;;;;;4400128;32;20074;-74
2022/08/03 08:17:50;;;;;;;0.85;0.68;;;27.50;78.90;;;;;;4400427;32;20121;-74
2022/08/03 08:20:19;;;;;;;0.10;0.10;;;27.60;78.60;;;;;;4401337;32;20074;-74
2022/08/03 08:22:44;;;;;;;0.20;0.20;;;27.70;77.10;;;;;;4400736;32;20114;-74
2022/08/03 08:25:10;;;;;;;0.20;0.20;;;27.70;77.00;;;;;;4400327;32;20085;-74
2022/08/03 08:27:52;;;;;;;0.20;0.20;;;27.80;76.70;;;;;;4401690;32;20124;-74
2022/08/03 08:30:20;;;;;;;0.20;0.20;;;27.70;77.10;;;;;;4400654;32;20074;-74
2022/08/03 08:32:46;;;;;;;0.10;0.10;;;27.70;76.20;;;;;;4400214;32;20466;-74
2022/08/03 08:35:12;;;;;;;0.10;0.10;;;27.80;76.60;;;;;;4399773;32;20074;-74
2022/08/03 08:37:39;;;;;;;0.00;0.00;;;27.90;76.80;;;;;;4399799;32;20134;-74
2022/08/03 08:40:06;;;;;;;0.10;0.10;;;28.10;76.30;;;;;;4399548;32;20082;-74
2022/08/03 08:42:32;;;;;;;0.47;0.37;;;28.10;75.60;;;;;;4400828;32;20070;-74
2022/08/03 08:45:00;;;;;;;0.30;0.30;;;28.10;74.70;;;;;;4400259;32;20526;-74
2022/08/03 08:47:30;;;;;;;0.15;0.15;;;28.10;74.50;;;;;;4398859;32;20434;-74
2022/08/03 08:49:57;;;;;;;0.20;0.20;;;28.20;75.00;;;;;;4399425;32;20073;-74
2022/08/03 08:52:27;;;;;;;0.35;0.32;;;28.30;75.30;;;;;;4391592;32;20078;-74
2022/08/03 08:55:04;;;;;;;0.20;0.20;;;28.40;75.30;;;;;;4399603;32;20066;-74
2022/08/03 08:57:36;;;;;;;0.10;0.10;;;28.30;74.60;;;;;;4399995;32;20062;-73
2022/08/03 09:00:03;;;;;;;0.10;0.10;;;28.30;75.80;;;;;;4399692;32;20343;-72
2022/08/03 09:02:29;;;;;;;0.10;0.10;;;28.50;75.20;;;;;;4399990;32;20655;-74
2022/08/03 09:04:56;;;;;;;0.20;0.20;;;28.60;75.40;;;;;;4399858;32;20090;-74
2022/08/03 09:07:22;;;;;;;0.00;0.00;;;28.80;75.50;;;;;;4399728;32;20090;-74
2022/08/03 09:09:48;;;;;;;0.10;0.10;;;28.90;73.50;;;;;;4399892;32;20058;-74
2022/08/03 09:12:14;;;;;;;0.47;0.47;;;28.80;73.20;;;;;;4399494;32;20054;-74
2022/08/03 09:14:40;;;;;;;0.55;0.37;;;29.00;74.20;;;;;;4400099;32;20070;-74
2022/08/03 09:17:05;;;;;;;0.40;0.40;;;29.10;73.70;;;;;;4399664;32;20066;-74
2022/08/03 09:19:32;;;;;;;0.20;0.20;;;29.20;73.30;;;;;;4399690;32;20063;-74
2022/08/03 09:22:09;;;;;;;0.88;0.30;;;29.40;73.10;;;;;;4391865;32;20058;-72
2022/08/03 09:24:36;;;;;;;0.35;0.20;;;29.50;73.00;;;;;;4398316;32;20073;-73
2022/08/03 09:27:05;;;;;;;0.13;0.13;;;29.50;72.00;;;;;;4399864;32;20169;-73
2022/08/03 09:29:32;;;;;;;0.22;0.10;;;29.50;71.60;;;;;;4399752;32;20070;-73
2022/08/03 09:32:02;;;;;;;0.25;0.25;;;29.50;72.50;;;;;;4400076;32;20062;-73
2022/08/03 09:34:27;;;;;;;0.32;0.30;;;29.60;71.90;;;;;;4399894;32;20419;-73
2022/08/03 09:36:54;;;;;;;0.10;0.10;;;29.70;72.50;;;;;;4399758;32;20066;-73
2022/08/03 09:39:22;;;;;;;1.75;0.90;;;29.90;71.70;;;;;;4399783;32;20069;-73
2022/08/03 09:42:04;;;;;;;0.10;0.10;;;30.00;70.50;;;;;;4400051;32;20083;-74
2022/08/03 09:44:35;;;;;;;0.10;0.10;;;30.20;71.30;;;;;;4399548;32;20077;-74
2022/08/03 09:47:01;;;;;;;5.78;1.12;;;30.40;71.00;;;;;;4399402;32;20509;-73
2022/08/03 09:49:26;;;;;;;0.32;0.28;;;30.50;69.00;;;;;;4400161;32;20069;-74
2022/08/03 09:51:53;;;;;;;0.13;0.10;;;30.20;69.40;;;;;;4399569;32;20074;-73
2022/08/03 09:54:27;;;;;;;0.20;0.20;;;30.40;68.80;;;;;;4399112;32;20078;-74
2022/08/03 09:56:52;;;;;;;0.45;0.28;;;30.40;69.10;;;;;;4398771;32;20093;-74
2022/08/03 09:59:27;;;;;;;0.10;0.10;;;30.50;67.30;;;;;;4402410;32;20549;-73
2022/08/03 10:01:54;;;;;;;0.10;0.10;;;30.40;68.00;;;;;;4404111;32;20538;-73
2022/08/03 10:04:21;;;;;;;0.20;0.20;;;30.60;68.20;;;;;;4404502;32;20462;-74
2022/08/03 10:07:03;;;;;;;0.10;0.10;;;30.90;67.30;;;;;;4405242;32;20066;-73
2022/08/03 10:09:28;;;;;;;0.20;0.20;;;31.10;67.70;;;;;;4403859;32;20131;-73
2022/08/03 10:11:55;;;;;;;5.45;1.02;;;31.20;65.90;;;;;;4404062;32;20473;-73
2022/08/03 10:14:22;;;;;;;0.20;0.15;;;31.30;66.50;;;;;;4404404;32;20517;-73
2022/08/03 10:16:48;;;;;;;1.30;0.80;;;31.70;66.20;;;;;;4403490;32;20077;-73
2022/08/03 10:19:14;;;;;;;0.17;0.17;;;31.70;64.70;;;;;;4404355;32;20066;-73
2022/08/03 10:21:45;;;;;;;0.43;0.32;;;31.50;64.70;;;;;;4404251;32;20074;-74
2022/08/03 10:24:13;;;;;;;0.25;0.25;;;31.40;65.10;;;;;;4392227;32;20066;-73
2022/08/03 10:26:40;;;;;;;0.00;0.00;;;31.50;64.60;;;;;;4388766;32;20077;-73
2022/08/03 10:29:13;;;;;;;0.10;0.10;;;31.70;65.60;;;;;;4389526;32;20816;-73
2022/08/03 10:31:43;;;;;;;0.20;0.20;;;31.90;63.00;;;;;;4389474;32;20530;-73
2022/08/03 10:34:17;;;;;;;0.53;0.43;;;31.70;63.00;;;;;;4388775;32;20396;-73
2022/08/03 10:36:44;;;;;;;0.05;0.05;;;31.50;65.00;;;;;;4388244;32;20055;-73
2022/08/03 10:39:11;;;;;;;0.20;0.20;;;32.00;63.80;;;;;;4388835;32;20090;-73
2022/08/03 10:41:39;;;;;;;0.30;0.30;;;32.50;64.20;;;;;;4388810;32;20526;-73
2022/08/03 10:44:09;;;;;;;0.13;0.13;;;32.30;62.70;;;;;;4388424;32;20126;-73
2022/08/03 10:46:37;;;;;;;0.10;0.10;;;32.40;62.70;;;;;;4400057;32;20098;-74
2022/08/03 10:49:03;;;;;;;0.00;0.00;;;32.70;62.00;;;;;;4404051;32;20087;-73
2022/08/03 10:51:30;;;;;;;0.05;0.05;;;32.70;62.30;;;;;;4404051;32;20132;-74
2022/08/03 10:53:57;;;;;;;0.20;0.20;;;32.90;62.40;;;;;;4403549;32;20082;-74
2022/08/03 10:57:39;;;;;;;0.30;0.30;;;33.00;61.90;;;;;;4403731;32;20502;-74
2022/08/03 10:59:45;;;;;;;0.10;0.10;;;32.90;61.10;;;;;;4402228;32;20118;-73
2022/08/03 11:02:12;;;;;;;0.98;0.62;;;33.00;61.70;;;;;;4402071;32;20383;-73
2022/08/03 11:04:39;;;;;;;1.73;0.28;;;33.10;60.30;;;;;;4403903;32;20070;-73
2022/08/03 11:07:20;;;;;;;0.20;0.13;;;33.00;61.50;;;;;;4403389;32;20071;-73
2022/08/03 11:09:50;;;;;;;0.32;0.30;;;33.10;60.90;;;;;;4402454;32;20215;-73
2022/08/03 11:12:25;;;;;;;0.13;0.13;;;33.20;61.30;;;;;;4401552;32;20069;-74
2022/08/03 11:14:52;;;;;;;0.37;0.35;;;33.90;60.30;;;;;;4400795;32;20427;-73
2022/08/03 11:17:18;;;;;;;0.10;0.10;;;34.20;59.50;;;;;;4400213;32;20517;-73
2022/08/03 11:19:48;;;;;;;0.10;0.10;;;34.20;59.20;;;;;;4400834;32;20074;-73
2022/08/03 11:22:14;;;;;;;0.22;0.22;;;34.10;59.00;;;;;;4400822;32;20190;-73
2022/08/03 11:24:42;;;;;;;0.17;0.17;;;34.20;58.90;;;;;;4386234;32;20125;-73
2022/08/03 11:27:18;;;;;;;0.10;0.10;;;34.20;59.00;;;;;;4385693;32;20070;-73
2022/08/03 11:30:06;;;;;;;0.10;0.10;;;34.60;59.20;;;;;;4384983;32;20117;-74
2022/08/03 11:32:52;;;;;;;0.13;0.13;;;35.10;58.70;;;;;;4384331;32;20075;-74
2022/08/03 11:35:27;;;;;;;0.20;0.20;;;35.10;57.50;;;;;;4385016;32;20093;-73
2022/08/03 11:37:59;;;;;;;0.10;0.10;;;35.30;57.40;;;;;;4384953;32;20086;-74
2022/08/03 11:40:43;;;;;;;0.28;0.25;;;35.60;57.90;;;;;;4385691;32;20090;-74
2022/08/03 11:43:30;;;;;;;0.17;0.17;;;35.20;57.90;;;;;;4385180;32;20071;-74
2022/08/03 11:46:06;;;;;;;0.10;0.10;;;35.40;57.20;;;;;;4392100;32;20086;-73
2022/08/03 11:48:35;;;;;;;0.20;0.20;;;35.60;57.20;;;;;;4400498;32;20073;-74
2022/08/03 11:51:01;;;;;;;0.17;0.17;;;35.80;55.90;;;;;;4400796;32;20066;-73
2022/08/03 11:53:27;;;;;;;0.30;0.30;;;35.40;56.80;;;;;;4400359;32;20121;-74
2022/08/03 11:55:53;;;;;;;2.30;0.90;;;35.50;57.40;;;;;;4399480;32;20066;-74
2022/08/03 11:58:20;;;;;;;0.10;0.10;;;36.00;57.40;;;;;;4402880;32;20088;-73
2022/08/03 12:00:46;;;;;;;0.10;0.10;;;36.40;55.70;;;;;;4415925;32;20078;-73
2022/08/03 12:03:14;;;;;;;0.25;0.15;;;36.80;54.40;;;;;;4415517;32;20121;-73
2022/08/03 12:05:45;;;;;;;0.40;0.40;;;37.00;54.80;;;;;;4415619;32;20069;-73
2022/08/03 12:08:12;;;;;;;0.10;0.10;;;37.20;53.90;;;;;;4415592;32;20407;-74
2022/08/03 12:10:39;;;;;;;3.00;0.75;;;37.10;54.40;;;;;;4415180;32;20508;-74
2022/08/03 12:13:07;;;;;;;0.10;0.10;;;37.20;53.80;;;;;;4403203;32;20482;-74
2022/08/03 12:15:35;;;;;;;12.50;0.37;;;37.60;53.20;;;;;;4400872;32;20443;-74
2022/08/03 12:18:02;;;;;;;0.10;0.10;;;37.70;53.30;;;;;;4400682;32;20469;-74
2022/08/03 12:20:30;;;;;;;0.28;0.28;;;38.10;52.50;;;;;;4401070;32;20118;-74
2022/08/03 12:23:04;;;;;;;0.55;0.22;;;38.20;52.70;;;;;;4395323;32;20078;-73
2022/08/03 12:25:30;;;;;;;0.20;0.20;;;38.20;52.30;;;;;;4384640;32;20071;-74
2022/08/03 12:28:10;;;;;;;0.00;0.00;;;38.10;52.40;;;;;;4384161;32;20081;-74
2022/08/03 12:30:38;;;;;;;0.10;0.10;;;38.00;52.60;;;;;;4384410;32;20087;-74
2022/08/03 12:33:22;;;;;;;0.40;0.40;;;37.80;52.50;;;;;;4384627;32;20116;-74
2022/08/03 12:36:02;;;;;;;0.00;0.00;;;38.00;52.60;;;;;;4385450;32;20124;-74
2022/08/03 12:38:28;;;;;;;0.10;0.10;;;38.00;53.30;;;;;;4396743;32;20403;-73
2022/08/03 12:40:57;;;;;;;3.72;0.85;;;38.00;52.60;;;;;;4385321;32;20122;-73
2022/08/03 12:43:22;;;;;;;2.85;1.33;;;37.70;52.20;;;;;;4398020;32;20406;-73
2022/08/03 12:45:48;;;;;;;0.30;0.30;;;37.90;52.80;;;;;;4399527;32;20121;-73
2022/08/03 12:48:13;;;;;;;0.10;0.10;;;38.00;52.00;;;;;;4400127;32;20085;-73
2022/08/03 12:50:40;;;;;;;0.00;0.00;;;37.90;52.10;;;;;;4399503;32;20463;-74
2022/08/03 12:53:07;;;;;;;0.00;0.00;;;38.20;51.70;;;;;;4399076;32;20117;-74
2022/08/03 12:55:34;;;;;;;0.30;0.30;;;38.70;51.60;;;;;;4400394;32;20078;-75
2022/08/03 12:58:00;;;;;;;0.15;0.15;;;38.90;51.10;;;;;;4399618;32;20434;-73